createdAt,value
2022-11-07T00:00:33.663Z,3.04
2022-11-07T00:03:02.654Z,3.11
2022-11-07T00:05:31.345Z,3.16
2022-11-07T00:08:00.297Z,3.21
2022-11-07T00:10:28.844Z,3.25
2022-11-07T00:12:59.066Z,3.27
2022-11-07T00:15:27.603Z,3.38
2022-11-07T00:17:56.398Z,3.47
2022-11-07T00:20:25.233Z,3.54
2022-11-07T00:22:54.050Z,3.65
2022-11-07T00:25:22.600Z,3.77
2022-11-07T00:27:51.414Z,3.84
2022-11-07T00:30:21.308Z,3.89
2022-11-07T00:32:50.155Z,3.97
2022-11-07T00:35:18.655Z,4.02
2022-11-07T00:37:47.636Z,4.08
2022-11-07T00:40:16.877Z,4.14
2022-11-07T00:42:45.685Z,4.20
2022-11-07T00:45:14.435Z,4.20
2022-11-07T00:47:44.543Z,4.26
2022-11-07T00:50:13.072Z,4.32
2022-11-07T00:52:41.842Z,4.41
2022-11-07T00:55:10.635Z,4.40
2022-11-07T00:57:39.429Z,4.51
2022-11-07T01:00:10.151Z,4.52
2022-11-07T01:02:39.043Z,4.53
2022-11-07T01:05:12.956Z,4.58
2022-11-07T01:07:41.926Z,4.59
2022-11-07T01:10:10.450Z,4.68
2022-11-07T01:16:18.006Z,4.76
2022-11-07T01:18:46.961Z,4.80
2022-11-07T01:21:16.992Z,4.87
2022-11-07T01:23:46.251Z,4.75
2022-11-07T01:26:16.862Z,4.91
2022-11-07T01:28:45.805Z,4.90
2022-11-07T01:31:17.640Z,4.93
2022-11-07T01:33:47.254Z,4.93
2022-11-07T01:36:19.980Z,4.95
2022-11-07T01:38:50.249Z,4.96
2022-11-07T01:41:24.212Z,5.00
2022-11-07T01:43:58.529Z,5.04
2022-11-07T01:46:31.750Z,5.04
2022-11-07T01:49:09.562Z,5.12
2022-11-07T01:51:46.731Z,5.11
2022-11-07T01:54:20.079Z,5.15
2022-11-07T01:56:49.825Z,5.14
2022-11-07T01:59:22.990Z,5.18
2022-11-07T02:01:52.735Z,5.21
2022-11-07T02:04:25.938Z,5.24
2022-11-07T02:07:02.977Z,5.22
2022-11-07T02:09:32.293Z,5.25
2022-11-07T02:12:01.239Z,5.29
2022-11-07T02:14:31.394Z,5.31
2022-11-07T02:17:01.702Z,5.36
2022-11-07T02:19:38.033Z,5.37
2022-11-07T02:22:19.208Z,5.41
2022-11-07T02:24:54.979Z,5.44
2022-11-07T02:27:29.647Z,5.41
2022-11-07T02:30:03.660Z,5.44
2022-11-07T02:32:32.425Z,5.49
2022-11-07T02:35:05.182Z,5.54
2022-11-07T02:37:37.448Z,5.53
2022-11-07T02:40:11.349Z,5.46
2022-11-07T02:42:46.454Z,5.48
2022-11-07T02:45:22.667Z,5.45
2022-11-07T02:47:51.208Z,5.50
2022-11-07T02:50:20.513Z,5.49
2022-11-07T02:52:49.183Z,5.51
2022-11-07T02:55:20.335Z,5.52
2022-11-07T02:57:48.906Z,5.54
2022-11-07T03:00:18.402Z,5.52
2022-11-07T03:02:47.946Z,5.59
2022-11-07T03:05:19.876Z,5.67
2022-11-07T03:07:50.325Z,5.72
2022-11-07T03:10:20.632Z,5.73
2022-11-07T03:12:49.268Z,5.75
2022-11-07T03:15:18.216Z,5.74
2022-11-07T03:17:46.764Z,5.76
2022-11-07T03:20:15.653Z,5.77
2022-11-07T03:22:44.199Z,5.77
2022-11-07T03:25:13.072Z,5.79
2022-11-07T03:27:49.151Z,5.85
2022-11-07T03:30:19.216Z,5.87
2022-11-07T03:32:47.756Z,5.90
2022-11-07T03:35:16.692Z,5.93
2022-11-07T03:37:47.494Z,5.94
2022-11-07T03:40:17.731Z,5.96
2022-11-07T03:42:48.279Z,5.97
2022-11-07T03:45:18.517Z,6.03
2022-11-07T03:47:48.492Z,6.06
2022-11-07T03:50:21.140Z,6.03
2022-11-07T03:52:50.457Z,6.10
2022-11-07T03:55:19.402Z,6.12
2022-11-07T03:57:49.399Z,6.18
2022-11-07T04:00:18.739Z,6.26
2022-11-07T04:02:47.646Z,6.33
2022-11-07T04:05:16.746Z,6.40
2022-11-07T04:07:45.324Z,6.44
2022-11-07T04:10:14.185Z,6.49
2022-11-07T04:13:00.368Z,6.54
2022-11-07T04:15:48.032Z,6.53
2022-11-07T04:18:16.585Z,6.51
2022-11-07T04:20:45.486Z,6.59
2022-11-07T04:23:14.309Z,6.65
2022-11-07T04:26:00.835Z,6.63
2022-11-07T04:28:29.433Z,6.65
2022-11-07T04:30:59.642Z,6.65
2022-11-07T04:33:28.220Z,6.71
2022-11-07T04:35:57.086Z,6.72
2022-11-07T04:38:25.648Z,6.78
2022-11-07T04:40:55.689Z,6.81
2022-11-07T04:43:25.422Z,6.74
2022-11-07T04:45:54.426Z,6.82
2022-11-07T04:48:24.431Z,6.84
2022-11-07T04:50:53.399Z,6.90
2022-11-07T04:53:21.947Z,6.89
2022-11-07T04:55:50.930Z,6.86
2022-11-07T04:58:19.477Z,6.92
2022-11-07T05:00:48.324Z,6.91
2022-11-07T05:03:17.435Z,6.84
2022-11-07T05:05:48.037Z,6.90
2022-11-07T05:08:16.600Z,6.92
2022-11-07T05:10:45.479Z,6.99
2022-11-07T05:13:14.396Z,7.00
2022-11-07T05:15:43.510Z,7.04
2022-11-07T05:18:12.584Z,7.04
2022-11-07T05:20:42.081Z,7.10
2022-11-07T05:23:15.893Z,7.12
2022-11-07T05:25:48.911Z,7.11
2022-11-07T05:28:28.078Z,7.13
2022-11-07T05:31:01.754Z,7.14
2022-11-07T05:33:31.023Z,7.16
2022-11-07T05:36:11.152Z,7.21
2022-11-07T05:38:43.867Z,7.28
2022-11-07T05:41:13.351Z,7.33
2022-11-07T05:43:42.192Z,7.33
2022-11-07T05:46:11.741Z,7.34
2022-11-07T05:48:41.591Z,7.35
2022-11-07T05:51:10.673Z,7.39
2022-11-07T05:53:39.474Z,7.36
2022-11-07T05:56:10.025Z,7.42
2022-11-07T05:58:39.084Z,7.47
2022-11-07T06:01:08.268Z,7.53
2022-11-07T06:03:36.913Z,7.47
2022-11-07T06:06:06.079Z,7.54
2022-11-07T06:08:34.618Z,7.57
2022-11-07T06:11:05.850Z,7.58
2022-11-07T06:13:35.825Z,7.65
2022-11-07T06:16:05.833Z,7.71
2022-11-07T06:18:41.405Z,7.74
2022-11-07T06:21:10.690Z,7.69
2022-11-07T06:23:39.366Z,7.75
2022-11-07T06:26:08.248Z,7.79
2022-11-07T06:28:38.331Z,7.77
2022-11-07T06:31:07.411Z,7.76
2022-11-07T06:33:35.991Z,7.81
2022-11-07T06:36:11.170Z,7.85
2022-11-07T06:38:41.840Z,7.88
2022-11-07T06:41:13.811Z,7.89
2022-11-07T06:43:43.926Z,7.93
2022-11-07T06:46:17.316Z,7.88
2022-11-07T06:48:46.215Z,7.97
2022-11-07T06:51:15.103Z,7.99
2022-11-07T06:53:43.690Z,7.93
2022-11-07T06:56:16.582Z,7.96
2022-11-07T06:58:46.672Z,8.06
2022-11-07T07:01:16.601Z,8.12
2022-11-07T07:03:45.648Z,8.17
2022-11-07T07:06:17.758Z,8.23
2022-11-07T07:08:47.282Z,8.21
2022-11-07T07:11:16.895Z,8.35
2022-11-07T07:13:46.839Z,8.35
2022-11-07T07:16:16.316Z,8.40
2022-11-07T07:18:44.916Z,8.39
2022-11-07T07:21:15.433Z,8.43
2022-11-07T07:23:44.024Z,8.49
2022-11-07T07:26:16.498Z,8.50
2022-11-07T07:28:46.500Z,8.56
2022-11-07T07:31:24.973Z,8.61
2022-11-07T07:33:53.900Z,8.60
2022-11-07T07:36:22.846Z,8.66
2022-11-07T07:38:52.511Z,8.63
2022-11-07T07:41:21.993Z,8.66
2022-11-07T07:43:52.029Z,8.68
2022-11-07T07:46:24.498Z,8.73
2022-11-07T07:48:53.120Z,8.69
2022-11-07T07:51:22.146Z,8.76
2022-11-07T07:53:50.740Z,8.82
2022-11-07T07:56:19.678Z,8.82
2022-11-07T07:58:48.258Z,8.83
2022-11-07T08:01:18.674Z,8.83
2022-11-07T08:04:03.122Z,8.90
2022-11-07T08:06:32.534Z,8.93
2022-11-07T08:09:01.174Z,8.95
2022-11-07T08:11:30.071Z,8.95
2022-11-07T08:14:01.514Z,8.99
2022-11-07T08:16:32.150Z,9.08
2022-11-07T08:19:00.775Z,9.08
2022-11-07T08:21:29.693Z,9.13
2022-11-07T08:23:58.378Z,9.14
2022-11-07T08:26:27.563Z,9.19
2022-11-07T08:28:56.273Z,9.21
2022-11-07T08:31:25.380Z,9.32
2022-11-07T08:33:59.024Z,9.45
2022-11-07T08:36:28.815Z,9.48
2022-11-07T08:38:57.470Z,9.65
2022-11-07T08:41:26.329Z,9.84
2022-11-07T08:43:54.883Z,9.89
2022-11-07T08:46:23.830Z,9.85
2022-11-07T08:48:53.786Z,9.99
2022-11-07T08:51:22.662Z,10.04
2022-11-07T08:53:51.281Z,10.18
2022-11-07T08:56:20.180Z,10.04
2022-11-07T08:58:48.778Z,10.18
2022-11-07T09:01:17.898Z,10.25
2022-11-07T09:03:52.889Z,10.41
2022-11-07T09:06:27.189Z,10.60
2022-11-07T09:08:55.785Z,10.77
2022-11-07T09:11:25.206Z,10.82
2022-11-07T09:13:54.984Z,11.19
2022-11-07T09:16:24.663Z,11.19
2022-11-07T09:18:53.549Z,11.41
2022-11-07T09:21:23.011Z,11.41
2022-11-07T09:23:53.816Z,11.89
2022-11-07T09:26:22.805Z,12.04
2022-11-07T09:28:54.107Z,11.78
2022-11-07T09:31:24.999Z,11.80
2022-11-07T09:33:53.585Z,11.71
2022-11-07T09:36:24.189Z,11.78
2022-11-07T09:38:56.250Z,11.74
2022-11-07T09:41:46.519Z,11.89
2022-11-07T09:44:40.635Z,12.26
2022-11-07T09:47:20.904Z,11.95
2022-11-07T09:49:53.597Z,11.67
2022-11-07T09:52:31.118Z,12.34
2022-11-07T09:55:14.249Z,12.16
2022-11-07T09:57:43.598Z,11.70
2022-11-07T10:00:18.909Z,11.88
2022-11-07T10:02:51.870Z,11.74
2022-11-07T10:05:35.338Z,11.72
2022-11-07T10:08:13.162Z,11.74
2022-11-07T10:10:52.190Z,11.83
2022-11-07T10:13:58.809Z,11.88
2022-11-07T10:16:47.815Z,11.91
2022-11-07T10:19:46.523Z,11.90
2022-11-07T10:22:34.630Z,12.17
2022-11-07T10:25:21.437Z,11.98
2022-11-07T10:28:09.653Z,11.93
2022-11-07T10:30:38.643Z,11.81
2022-11-07T10:33:24.353Z,12.50
2022-11-07T10:35:59.979Z,12.45
2022-11-07T10:38:31.480Z,12.89
2022-11-07T10:41:00.498Z,12.18
2022-11-07T10:43:37.883Z,13.10
2022-11-07T10:46:23.270Z,13.26
2022-11-07T10:48:58.343Z,13.06
2022-11-07T10:51:38.821Z,12.69
2022-11-07T10:54:21.823Z,12.85
2022-11-07T10:57:05.841Z,13.16
2022-11-07T10:59:40.591Z,12.75
2022-11-07T11:02:23.129Z,13.18
2022-11-07T11:04:56.408Z,12.65
2022-11-07T11:07:33.664Z,13.43
2022-11-07T11:10:02.896Z,12.64
2022-11-07T11:12:35.340Z,12.76
2022-11-07T11:15:11.943Z,12.70
2022-11-07T11:17:41.447Z,13.01
2022-11-07T11:20:32.153Z,12.40
2022-11-07T11:23:02.618Z,12.29
2022-11-07T11:25:31.429Z,12.35
2022-11-07T11:28:07.999Z,12.56
2022-11-07T11:30:38.381Z,12.78
2022-11-07T11:33:17.061Z,12.35
2022-11-07T11:35:54.516Z,13.70
2022-11-07T11:38:29.533Z,12.70
2022-11-07T11:41:10.542Z,13.74
2022-11-07T11:43:47.792Z,12.49
2022-11-07T11:46:29.923Z,12.69
2022-11-07T11:49:06.888Z,12.59
2022-11-07T11:51:44.102Z,13.00
2022-11-07T11:54:16.566Z,12.97
2022-11-07T11:56:54.117Z,13.62
2022-11-07T12:00:04.842Z,13.38
2022-11-07T12:03:16.097Z,13.07
2022-11-07T12:06:10.750Z,13.08
2022-11-07T12:09:04.023Z,12.62
2022-11-07T12:11:45.248Z,12.65
2022-11-07T12:14:40.573Z,12.76
2022-11-07T12:17:20.267Z,12.22
2022-11-07T12:19:59.545Z,12.35
2022-11-07T12:22:46.005Z,13.23
2022-11-07T12:25:24.876Z,13.00
2022-11-07T12:28:05.663Z,13.54
2022-11-07T12:30:48.441Z,12.40
2022-11-07T12:33:34.868Z,12.80
2022-11-07T12:36:14.577Z,12.96
2022-11-07T12:39:18.305Z,13.08
2022-11-07T12:41:58.979Z,11.99
2022-11-07T12:44:55.868Z,12.41
2022-11-07T12:47:53.567Z,12.65
2022-11-07T12:50:43.156Z,12.58
2022-11-07T12:53:33.619Z,13.60
2022-11-07T12:56:11.165Z,13.10
2022-11-07T12:58:43.839Z,13.09
2022-11-07T13:01:16.577Z,13.40
2022-11-07T13:04:00.787Z,13.17
2022-11-07T13:06:39.023Z,12.71
2022-11-07T13:09:22.726Z,12.33
2022-11-07T13:12:00.070Z,12.63
2022-11-07T13:14:34.157Z,13.15
2022-11-07T13:17:17.014Z,12.37
2022-11-07T13:19:47.671Z,12.39
2022-11-07T13:22:32.880Z,13.12
2022-11-07T13:25:28.662Z,13.41
2022-11-07T13:28:40.098Z,13.12
2022-11-07T13:31:36.832Z,12.22
2022-11-07T13:34:26.046Z,12.34
2022-11-07T13:37:03.943Z,11.65
2022-11-07T13:39:34.845Z,12.22
2022-11-07T13:42:06.820Z,11.94
2022-11-07T13:44:39.357Z,11.74
2022-11-07T13:47:18.393Z,12.67
2022-11-07T13:49:50.402Z,11.62
2022-11-07T13:52:29.257Z,11.30
2022-11-07T13:55:06.597Z,11.83
2022-11-07T13:57:42.596Z,11.62
2022-11-07T14:00:15.375Z,12.62
2022-11-07T14:02:53.574Z,11.67
2022-11-07T14:05:25.594Z,12.96
2022-11-07T14:08:00.787Z,12.82
2022-11-07T14:10:38.529Z,11.76
2022-11-07T14:13:11.837Z,12.22
2022-11-07T14:15:48.425Z,12.05
2022-11-07T14:18:19.765Z,12.51
2022-11-07T14:20:50.087Z,12.15
2022-11-07T14:23:22.556Z,12.06
2022-11-07T14:26:00.544Z,12.40
2022-11-07T14:28:37.180Z,12.68
2022-11-07T14:31:09.210Z,12.20
2022-11-07T14:33:37.759Z,11.48
2022-11-07T14:36:08.113Z,12.63
2022-11-07T14:38:36.872Z,12.96
2022-11-07T14:41:06.101Z,12.49
2022-11-07T14:43:36.103Z,12.12
2022-11-07T14:46:13.953Z,11.68
2022-11-07T14:48:45.211Z,11.88
2022-11-07T14:51:18.285Z,11.55
2022-11-07T14:53:57.028Z,11.31
2022-11-07T14:56:31.161Z,11.57
2022-11-07T14:59:02.118Z,11.71
2022-11-07T15:01:34.392Z,11.49
2022-11-07T15:04:17.090Z,11.63
2022-11-07T15:06:46.998Z,12.25
2022-11-07T15:09:16.288Z,12.32
2022-11-07T15:11:58.443Z,13.01
2022-11-07T15:14:35.179Z,11.67
2022-11-07T15:17:05.504Z,11.37
2022-11-07T15:19:36.425Z,11.41
2022-11-07T15:22:07.374Z,10.79
2022-11-07T15:24:43.344Z,10.89
2022-11-07T15:27:22.720Z,10.73
2022-11-07T15:29:56.993Z,10.80
2022-11-07T15:32:30.019Z,10.95
2022-11-07T15:35:12.104Z,11.32
2022-11-07T15:37:55.797Z,11.41
2022-11-07T15:40:27.352Z,11.21
2022-11-07T15:42:56.385Z,10.77
2022-11-07T15:45:26.565Z,10.55
2022-11-07T15:47:56.350Z,10.87
2022-11-07T15:50:26.210Z,10.83
2022-11-07T15:52:55.947Z,10.74
2022-11-07T15:55:25.138Z,10.73
2022-11-07T15:57:56.431Z,11.11
2022-11-07T16:00:27.933Z,10.77
2022-11-07T16:02:58.604Z,10.59
2022-11-07T16:05:27.226Z,10.90
2022-11-07T16:07:56.085Z,10.63
2022-11-07T16:10:27.359Z,10.56
2022-11-07T16:12:58.766Z,11.02
2022-11-07T16:15:32.281Z,11.06
2022-11-07T16:18:01.108Z,11.09
2022-11-07T16:20:33.509Z,12.05
2022-11-07T16:23:03.177Z,11.48
2022-11-07T16:25:31.995Z,11.16
2022-11-07T16:28:03.323Z,11.34
2022-11-07T16:30:33.804Z,11.12
2022-11-07T16:33:02.705Z,11.30
2022-11-07T16:35:31.380Z,10.73
2022-11-07T16:38:00.608Z,10.39
2022-11-07T16:40:29.237Z,10.29
2022-11-07T16:42:58.100Z,10.21
2022-11-07T16:45:26.912Z,10.44
2022-11-07T16:47:57.135Z,10.29
2022-11-07T16:50:25.948Z,10.35
2022-11-07T16:52:54.852Z,10.21
2022-11-07T16:55:23.448Z,10.19
2022-11-07T16:57:52.282Z,10.28
2022-11-07T17:00:24.155Z,10.84
2022-11-07T17:02:53.163Z,10.63
2022-11-07T17:05:23.289Z,10.51
2022-11-07T17:07:54.314Z,10.22
2022-11-07T17:10:23.017Z,10.14
2022-11-07T17:12:51.854Z,10.28
2022-11-07T17:15:20.412Z,10.61
2022-11-07T17:17:49.383Z,10.21
2022-11-07T17:20:49.456Z,10.63
2022-11-07T17:23:12.669Z,11.16
2022-11-07T17:25:43.236Z,10.43
2022-11-07T17:28:12.117Z,10.44
2022-11-07T17:30:40.700Z,10.37
2022-11-07T17:33:09.873Z,10.16
2022-11-07T17:35:40.359Z,10.26
2022-11-07T17:38:17.092Z,10.27
2022-11-07T17:40:46.255Z,10.32
2022-11-07T17:43:15.098Z,10.19
2022-11-07T17:45:43.722Z,10.19
2022-11-07T17:48:12.693Z,10.29
2022-11-07T17:50:42.632Z,10.30
2022-11-07T17:53:11.570Z,10.14
2022-11-07T17:55:40.187Z,10.04
2022-11-07T17:58:11.003Z,9.98
2022-11-07T18:00:39.676Z,10.24
2022-11-07T18:03:08.746Z,10.05
2022-11-07T18:05:37.427Z,9.95
2022-11-07T18:08:15.418Z,9.89
2022-11-07T18:11:01.803Z,9.81
2022-11-07T18:13:30.668Z,9.84
2022-11-07T18:15:59.364Z,9.80
2022-11-07T18:18:28.223Z,9.76
2022-11-07T18:20:56.782Z,9.76
2022-11-07T18:23:27.152Z,9.63
2022-11-07T18:26:04.443Z,9.64
2022-11-07T18:28:36.098Z,9.51
2022-11-07T18:31:07.480Z,9.44
2022-11-07T18:33:37.260Z,9.33
2022-11-07T18:36:09.788Z,9.27
2022-11-07T18:38:40.646Z,9.16
2022-11-07T18:41:13.348Z,9.07
2022-11-07T18:43:42.882Z,8.92
2022-11-07T18:46:16.559Z,8.88
2022-11-07T18:48:45.463Z,8.91
2022-11-07T18:51:18.352Z,8.77
2022-11-07T18:53:48.846Z,8.65
2022-11-07T18:56:17.746Z,8.53
2022-11-07T18:58:46.739Z,8.55
2022-11-07T19:01:18.530Z,8.51
2022-11-07T19:03:47.944Z,8.41
2022-11-07T19:06:20.382Z,8.35
2022-11-07T19:08:51.190Z,8.29
2022-11-07T19:11:25.474Z,8.21
2022-11-07T19:13:55.273Z,8.14
2022-11-07T19:16:24.717Z,8.08
2022-11-07T19:18:53.722Z,8.04
2022-11-07T19:21:23.553Z,7.99
2022-11-07T19:23:54.221Z,7.89
2022-11-07T19:26:24.865Z,7.83
2022-11-07T19:28:54.350Z,7.78
2022-11-07T19:31:22.983Z,7.73
2022-11-07T19:33:51.870Z,7.66
2022-11-07T19:36:39.838Z,7.64
2022-11-07T19:39:10.603Z,7.58
2022-11-07T19:41:39.159Z,7.54
2022-11-07T19:44:07.991Z,7.53
2022-11-07T19:46:37.219Z,7.51
2022-11-07T19:49:06.113Z,7.52
2022-11-07T19:51:36.297Z,7.49
2022-11-07T19:54:07.554Z,7.52
2022-11-07T19:56:37.545Z,7.47
2022-11-07T19:59:06.789Z,7.56
2022-11-07T20:01:36.678Z,7.57
2022-11-07T20:04:08.758Z,7.53
2022-11-07T20:06:39.923Z,7.61
2022-11-07T20:09:16.241Z,7.48
2022-11-07T20:11:46.246Z,7.38
2022-11-07T20:14:15.263Z,7.27
2022-11-07T20:16:43.812Z,7.20
2022-11-07T20:19:12.766Z,7.15
2022-11-07T20:21:41.544Z,7.11
2022-11-07T20:24:10.684Z,7.05
2022-11-07T20:26:39.564Z,7.05
2022-11-07T20:29:10.449Z,7.06
2022-11-07T20:31:40.062Z,7.03
2022-11-07T20:34:12.748Z,7.02
2022-11-07T20:36:41.314Z,7.08
2022-11-07T20:39:12.868Z,7.05
2022-11-07T20:41:42.536Z,7.00
2022-11-07T20:44:16.418Z,7.01
2022-11-07T20:46:46.972Z,7.35
2022-11-07T20:49:17.867Z,7.06
2022-11-07T20:51:47.076Z,6.96
2022-11-07T20:54:17.164Z,6.93
2022-11-07T20:56:47.230Z,6.93
2022-11-07T20:59:17.473Z,6.90
2022-11-07T21:01:46.189Z,6.98
2022-11-07T21:04:16.420Z,6.91
2022-11-07T21:06:45.397Z,6.94
2022-11-07T21:09:14.542Z,6.92
2022-11-07T21:11:43.138Z,6.83
2022-11-07T21:14:12.120Z,6.86
2022-11-07T21:16:42.247Z,6.87
2022-11-07T21:19:15.941Z,6.74
2022-11-07T21:21:44.756Z,6.68
2022-11-07T21:24:13.608Z,6.75
2022-11-07T21:26:43.333Z,6.57
2022-11-07T21:29:12.335Z,6.51
2022-11-07T21:31:42.796Z,6.49
2022-11-07T21:34:11.828Z,6.50
2022-11-07T21:36:40.371Z,6.50
2022-11-07T21:39:09.267Z,6.40
2022-11-07T21:41:38.403Z,6.33
2022-11-07T21:44:07.310Z,6.42
2022-11-07T21:46:35.902Z,6.31
2022-11-07T21:49:06.539Z,6.25
2022-11-07T21:51:36.393Z,6.28
2022-11-07T21:54:07.034Z,6.16
2022-11-07T21:56:38.574Z,6.13
2022-11-07T21:59:10.246Z,6.08
2022-11-07T22:01:40.484Z,6.06
2022-11-07T22:04:13.685Z,6.09
2022-11-07T22:06:45.359Z,6.03
2022-11-07T22:09:17.689Z,5.97
2022-11-07T22:11:46.453Z,5.93
2022-11-07T22:14:17.042Z,5.87
2022-11-07T22:16:46.173Z,5.86
2022-11-07T22:19:17.529Z,5.81
2022-11-07T22:21:46.459Z,5.73
2022-11-07T22:24:15.269Z,5.71
2022-11-07T22:26:43.923Z,5.69
2022-11-07T22:29:12.791Z,5.65
2022-11-07T22:31:41.330Z,5.57
2022-11-07T22:34:11.394Z,5.54
2022-11-07T22:36:41.521Z,5.54
2022-11-07T22:39:10.506Z,5.55
2022-11-07T22:41:39.069Z,5.51
2022-11-07T22:44:07.945Z,5.52
2022-11-07T22:46:36.670Z,5.50
2022-11-07T22:49:05.994Z,5.55
2022-11-07T22:51:36.451Z,5.58
2022-11-07T22:54:09.237Z,5.65
2022-11-07T22:56:38.394Z,5.70
2022-11-07T22:59:08.510Z,5.74
2022-11-07T23:01:39.092Z,5.83
2022-11-07T23:04:09.611Z,5.80
2022-11-07T23:06:38.165Z,5.80
2022-11-07T23:09:08.393Z,5.84
2022-11-07T23:11:46.034Z,5.81
2022-11-07T23:14:19.298Z,5.81
2022-11-07T23:16:50.423Z,5.74
2022-11-07T23:19:21.812Z,5.69
2022-11-07T23:21:51.900Z,5.71
2022-11-07T23:24:22.370Z,5.77
2022-11-07T23:26:51.129Z,5.83
2022-11-07T23:29:23.154Z,5.89
2022-11-07T23:31:53.308Z,5.95
2022-11-07T23:34:23.355Z,6.05
2022-11-07T23:36:52.908Z,6.28
2022-11-07T23:39:26.003Z,6.13
2022-11-07T23:41:54.562Z,6.53
2022-11-07T23:44:23.406Z,6.41
2022-11-07T23:47:09.592Z,6.32
2022-11-07T23:49:55.975Z,6.37
2022-11-07T23:52:24.738Z,6.50
2022-11-07T23:55:12.402Z,6.49
2022-11-07T23:57:54.847Z,6.52
